sensor_id;sensor_type;location;lat;lon;timestamp;P1;durP1;ratioP1;P2;durP2;ratioP2
7316;SDS011;3699;51.462;6.696;2023-04-06T00:00:27;20.57;;;11.87;;
7316;SDS011;3699;51.462;6.696;2023-04-06T00:02:53;21.43;;;11.83;;
7316;SDS011;3699;51.462;6.696;2023-04-06T00:05:20;18.23;;;11.33;;
7316;SDS011;3699;51.462;6.696;2023-04-06T00:07:47;19.53;;;11.33;;
7316;SDS011;3699;51.462;6.696;2023-04-06T00:10:15;19.23;;;11.53;;
7316;SDS011;3699;51.462;6.696;2023-04-06T00:12:42;23.83;;;11.90;;
7316;SDS011;3699;51.462;6.696;2023-04-06T00:15:09;19.97;;;11.47;;
7316;SDS011;3699;51.462;6.696;2023-04-06T00:17:38;19.37;;;10.80;;
7316;SDS011;3699;51.462;6.696;2023-04-06T00:20:05;18.50;;;11.23;;
7316;SDS011;3699;51.462;6.696;2023-04-06T00:22:33;19.17;;;11.17;;
7316;SDS011;3699;51.462;6.696;2023-04-06T00:25:00;18.33;;;10.83;;
7316;SDS011;3699;51.462;6.696;2023-04-06T00:27:27;17.37;;;10.00;;
7316;SDS011;3699;51.462;6.696;2023-04-06T00:29:53;18.77;;;12.50;;
7316;SDS011;3699;51.462;6.696;2023-04-06T00:32:20;22.70;;;11.73;;
7316;SDS011;3699;51.462;6.696;2023-04-06T00:34:48;20.37;;;11.30;;
7316;SDS011;3699;51.462;6.696;2023-04-06T00:37:15;21.33;;;11.60;;
7316;SDS011;3699;51.462;6.696;2023-04-06T00:39:42;17.37;;;10.57;;
7316;SDS011;3699;51.462;6.696;2023-04-06T00:42:10;19.00;;;11.13;;
7316;SDS011;3699;51.462;6.696;2023-04-06T00:44:38;22.80;;;11.63;;
7316;SDS011;3699;51.462;6.696;2023-04-06T00:47:05;17.97;;;11.07;;
7316;SDS011;3699;51.462;6.696;2023-04-06T00:49:32;19.43;;;11.27;;
7316;SDS011;3699;51.462;6.696;2023-04-06T00:52:00;19.13;;;10.73;;
7316;SDS011;3699;51.462;6.696;2023-04-06T00:54:28;21.30;;;11.43;;
7316;SDS011;3699;51.462;6.696;2023-04-06T00:56:55;19.60;;;11.43;;
7316;SDS011;3699;51.462;6.696;2023-04-06T00:59:22;19.30;;;11.07;;
7316;SDS011;3699;51.462;6.696;2023-04-06T01:01:49;20.10;;;11.60;;
7316;SDS011;3699;51.462;6.696;2023-04-06T01:04:16;18.33;;;10.83;;
7316;SDS011;3699;51.462;6.696;2023-04-06T01:06:42;19.27;;;10.63;;
7316;SDS011;3699;51.462;6.696;2023-04-06T01:09:11;25.00;;;11.80;;
7316;SDS011;3699;51.462;6.696;2023-04-06T01:11:38;19.73;;;10.93;;
7316;SDS011;3699;51.462;6.696;2023-04-06T01:14:05;20.77;;;10.97;;
7316;SDS011;3699;51.462;6.696;2023-04-06T01:16:32;18.47;;;11.37;;
7316;SDS011;3699;51.462;6.696;2023-04-06T01:18:59;21.67;;;11.33;;
7316;SDS011;3699;51.462;6.696;2023-04-06T01:21:25;19.07;;;10.33;;
7316;SDS011;3699;51.462;6.696;2023-04-06T01:23:53;18.33;;;10.97;;
7316;SDS011;3699;51.462;6.696;2023-04-06T01:26:20;18.20;;;10.93;;
7316;SDS011;3699;51.462;6.696;2023-04-06T01:28:47;16.87;;;10.67;;
7316;SDS011;3699;51.462;6.696;2023-04-06T01:31:13;21.43;;;11.37;;
7316;SDS011;3699;51.462;6.696;2023-04-06T01:33:40;24.17;;;12.30;;
7316;SDS011;3699;51.462;6.696;2023-04-06T01:36:07;23.20;;;11.73;;
7316;SDS011;3699;51.462;6.696;2023-04-06T01:38:34;21.63;;;12.63;;
7316;SDS011;3699;51.462;6.696;2023-04-06T01:41:02;20.47;;;11.83;;
7316;SDS011;3699;51.462;6.696;2023-04-06T01:43:29;23.97;;;12.17;;
7316;SDS011;3699;51.462;6.696;2023-04-06T01:45:55;16.23;;;11.13;;
7316;SDS011;3699;51.462;6.696;2023-04-06T01:48:22;23.97;;;11.63;;
7316;SDS011;3699;51.462;6.696;2023-04-06T01:50:49;19.97;;;11.83;;
7316;SDS011;3699;51.462;6.696;2023-04-06T01:53:16;19.93;;;12.20;;
7316;SDS011;3699;51.462;6.696;2023-04-06T01:55:42;17.67;;;11.53;;
7316;SDS011;3699;51.462;6.696;2023-04-06T01:58:10;19.60;;;10.47;;
7316;SDS011;3699;51.462;6.696;2023-04-06T02:00:37;21.27;;;11.43;;
7316;SDS011;3699;51.462;6.696;2023-04-06T02:03:04;19.53;;;11.23;;
7316;SDS011;3699;51.462;6.696;2023-04-06T02:05:32;17.77;;;10.20;;
7316;SDS011;3699;51.462;6.696;2023-04-06T02:08:02;18.77;;;10.73;;
7316;SDS011;3699;51.462;6.696;2023-04-06T02:10:29;20.87;;;11.10;;
7316;SDS011;3699;51.462;6.696;2023-04-06T02:12:56;18.87;;;11.03;;
7316;SDS011;3699;51.462;6.696;2023-04-06T02:15:24;18.37;;;10.83;;
7316;SDS011;3699;51.462;6.696;2023-04-06T02:17:51;18.10;;;10.63;;
7316;SDS011;3699;51.462;6.696;2023-04-06T02:20:18;17.97;;;10.70;;
7316;SDS011;3699;51.462;6.696;2023-04-06T02:22:45;18.37;;;11.40;;
7316;SDS011;3699;51.462;6.696;2023-04-06T02:25:11;17.93;;;11.03;;
7316;SDS011;3699;51.462;6.696;2023-04-06T02:27:38;21.63;;;11.97;;
7316;SDS011;3699;51.462;6.696;2023-04-06T02:30:05;18.73;;;11.67;;
7316;SDS011;3699;51.462;6.696;2023-04-06T02:32:34;20.77;;;11.30;;
7316;SDS011;3699;51.462;6.696;2023-04-06T02:35:01;17.80;;;10.40;;
7316;SDS011;3699;51.462;6.696;2023-04-06T02:37:28;15.90;;;10.97;;
7316;SDS011;3699;51.462;6.696;2023-04-06T02:39:55;20.07;;;12.30;;
7316;SDS011;3699;51.462;6.696;2023-04-06T02:42:21;19.27;;;12.17;;
7316;SDS011;3699;51.462;6.696;2023-04-06T02:44:48;19.33;;;11.97;;
7316;SDS011;3699;51.462;6.696;2023-04-06T02:47:15;22.00;;;12.53;;
7316;SDS011;3699;51.462;6.696;2023-04-06T02:49:43;20.47;;;12.03;;
7316;SDS011;3699;51.462;6.696;2023-04-06T02:52:10;19.40;;;12.20;;
7316;SDS011;3699;51.462;6.696;2023-04-06T02:54:36;20.67;;;12.03;;
7316;SDS011;3699;51.462;6.696;2023-04-06T02:57:03;25.57;;;11.93;;
7316;SDS011;3699;51.462;6.696;2023-04-06T02:59:30;16.63;;;10.77;;
7316;SDS011;3699;51.462;6.696;2023-04-06T03:01:57;25.03;;;12.13;;
7316;SDS011;3699;51.462;6.696;2023-04-06T03:04:24;19.63;;;11.00;;
7316;SDS011;3699;51.462;6.696;2023-04-06T03:06:53;23.70;;;12.40;;
7316;SDS011;3699;51.462;6.696;2023-04-06T03:09:20;21.87;;;12.50;;
7316;SDS011;3699;51.462;6.696;2023-04-06T03:11:47;21.03;;;12.20;;
7316;SDS011;3699;51.462;6.696;2023-04-06T03:14:13;20.13;;;12.23;;
7316;SDS011;3699;51.462;6.696;2023-04-06T03:16:42;24.47;;;12.30;;
7316;SDS011;3699;51.462;6.696;2023-04-06T03:19:09;19.63;;;12.93;;
7316;SDS011;3699;51.462;6.696;2023-04-06T03:21:35;20.50;;;12.70;;
7316;SDS011;3699;51.462;6.696;2023-04-06T03:24:04;21.50;;;12.13;;
7316;SDS011;3699;51.462;6.696;2023-04-06T03:26:31;22.90;;;12.30;;
7316;SDS011;3699;51.462;6.696;2023-04-06T03:28:57;18.13;;;12.57;;
7316;SDS011;3699;51.462;6.696;2023-04-06T03:31:25;21.73;;;13.30;;
7316;SDS011;3699;51.462;6.696;2023-04-06T03:33:52;22.87;;;13.37;;
7316;SDS011;3699;51.462;6.696;2023-04-06T03:36:18;24.70;;;13.83;;
7316;SDS011;3699;51.462;6.696;2023-04-06T03:38:45;22.00;;;13.60;;
7316;SDS011;3699;51.462;6.696;2023-04-06T03:41:13;22.07;;;12.47;;
7316;SDS011;3699;51.462;6.696;2023-04-06T03:43:40;22.37;;;13.27;;
7316;SDS011;3699;51.462;6.696;2023-04-06T03:46:06;22.07;;;13.83;;
7316;SDS011;3699;51.462;6.696;2023-04-06T03:48:33;25.20;;;14.03;;
7316;SDS011;3699;51.462;6.696;2023-04-06T03:51:00;27.00;;;13.00;;
7316;SDS011;3699;51.462;6.696;2023-04-06T03:53:27;23.47;;;12.33;;
7316;SDS011;3699;51.462;6.696;2023-04-06T03:55:53;20.80;;;13.20;;
7316;SDS011;3699;51.462;6.696;2023-04-06T03:58:21;21.03;;;13.43;;
7316;SDS011;3699;51.462;6.696;2023-04-06T04:00:48;21.60;;;13.33;;
7316;SDS011;3699;51.462;6.696;2023-04-06T04:03:15;22.37;;;12.97;;
7316;SDS011;3699;51.462;6.696;2023-04-06T04:05:41;20.80;;;13.70;;
7316;SDS011;3699;51.462;6.696;2023-04-06T04:08:08;19.40;;;12.50;;
7316;SDS011;3699;51.462;6.696;2023-04-06T04:10:35;20.50;;;12.77;;
7316;SDS011;3699;51.462;6.696;2023-04-06T04:13:02;19.23;;;12.50;;
7316;SDS011;3699;51.462;6.696;2023-04-06T04:15:30;21.07;;;11.97;;
7316;SDS011;3699;51.462;6.696;2023-04-06T04:17:57;21.50;;;12.20;;
7316;SDS011;3699;51.462;6.696;2023-04-06T04:20:23;19.70;;;12.03;;
7316;SDS011;3699;51.462;6.696;2023-04-06T04:22:50;20.53;;;12.17;;
7316;SDS011;3699;51.462;6.696;2023-04-06T04:25:17;20.23;;;12.07;;
7316;SDS011;3699;51.462;6.696;2023-04-06T04:27:43;20.53;;;12.83;;
7316;SDS011;3699;51.462;6.696;2023-04-06T04:30:10;21.77;;;12.17;;
7316;SDS011;3699;51.462;6.696;2023-04-06T04:32:38;20.63;;;12.33;;
7316;SDS011;3699;51.462;6.696;2023-04-06T04:35:05;18.23;;;11.40;;
7316;SDS011;3699;51.462;6.696;2023-04-06T04:37:33;20.80;;;12.77;;
7316;SDS011;3699;51.462;6.696;2023-04-06T04:40:00;19.67;;;11.70;;
7316;SDS011;3699;51.462;6.696;2023-04-06T04:42:27;22.67;;;12.63;;
7316;SDS011;3699;51.462;6.696;2023-04-06T04:44:54;23.43;;;12.67;;
7316;SDS011;3699;51.462;6.696;2023-04-06T04:47:20;20.50;;;12.50;;
7316;SDS011;3699;51.462;6.696;2023-04-06T04:49:49;21.17;;;12.17;;
7316;SDS011;3699;51.462;6.696;2023-04-06T04:52:15;21.37;;;12.20;;
7316;SDS011;3699;51.462;6.696;2023-04-06T04:54:42;19.30;;;12.10;;
7316;SDS011;3699;51.462;6.696;2023-04-06T04:57:09;15.77;;;11.23;;
7316;SDS011;3699;51.462;6.696;2023-04-06T04:59:35;20.67;;;11.80;;
7316;SDS011;3699;51.462;6.696;2023-04-06T05:02:02;18.00;;;10.60;;
7316;SDS011;3699;51.462;6.696;2023-04-06T05:04:29;18.37;;;10.83;;
7316;SDS011;3699;51.462;6.696;2023-04-06T05:07:03;16.47;;;10.30;;
7316;SDS011;3699;51.462;6.696;2023-04-06T05:09:31;22.53;;;10.83;;
7316;SDS011;3699;51.462;6.696;2023-04-06T05:11:58;16.60;;;10.80;;
7316;SDS011;3699;51.462;6.696;2023-04-06T05:14:25;17.37;;;10.93;;
7316;SDS011;3699;51.462;6.696;2023-04-06T05:16:52;18.17;;;10.80;;
7316;SDS011;3699;51.462;6.696;2023-04-06T05:19:18;18.10;;;11.07;;
7316;SDS011;3699;51.462;6.696;2023-04-06T05:21:45;16.40;;;11.27;;
7316;SDS011;3699;51.462;6.696;2023-04-06T05:24:14;20.70;;;11.10;;
7316;SDS011;3699;51.462;6.696;2023-04-06T05:26:40;20.67;;;10.57;;
7316;SDS011;3699;51.462;6.696;2023-04-06T05:29:07;18.23;;;10.73;;
7316;SDS011;3699;51.462;6.696;2023-04-06T05:31:34;18.10;;;11.17;;
7316;SDS011;3699;51.462;6.696;2023-04-06T05:34:01;19.13;;;10.90;;
7316;SDS011;3699;51.462;6.696;2023-04-06T05:36:28;16.23;;;10.80;;
7316;SDS011;3699;51.462;6.696;2023-04-06T05:38:55;20.53;;;10.20;;
7316;SDS011;3699;51.462;6.696;2023-04-06T05:41:23;15.93;;;9.17;;
7316;SDS011;3699;51.462;6.696;2023-04-06T05:43:50;17.40;;;10.70;;
7316;SDS011;3699;51.462;6.696;2023-04-06T05:46:17;14.53;;;10.03;;
7316;SDS011;3699;51.462;6.696;2023-04-06T05:48:44;21.13;;;10.33;;
7316;SDS011;3699;51.462;6.696;2023-04-06T05:51:11;17.67;;;10.83;;
7316;SDS011;3699;51.462;6.696;2023-04-06T05:53:38;12.83;;;9.23;;
7316;SDS011;3699;51.462;6.696;2023-04-06T05:56:04;16.30;;;9.60;;
7316;SDS011;3699;51.462;6.696;2023-04-06T05:58:33;13.93;;;8.77;;
7316;SDS011;3699;51.462;6.696;2023-04-06T06:01:00;17.00;;;8.90;;
7316;SDS011;3699;51.462;6.696;2023-04-06T06:03:27;16.53;;;9.37;;
7316;SDS011;3699;51.462;6.696;2023-04-06T06:05:58;14.33;;;8.80;;
7316;SDS011;3699;51.462;6.696;2023-04-06T06:08:25;14.50;;;9.77;;
7316;SDS011;3699;51.462;6.696;2023-04-06T06:10:52;15.70;;;8.87;;
7316;SDS011;3699;51.462;6.696;2023-04-06T06:13:19;14.37;;;8.80;;
7316;SDS011;3699;51.462;6.696;2023-04-06T06:15:47;14.87;;;8.83;;
7316;SDS011;3699;51.462;6.696;2023-04-06T06:18:14;16.50;;;8.70;;
7316;SDS011;3699;51.462;6.696;2023-04-06T06:20:41;14.30;;;9.10;;
7316;SDS011;3699;51.462;6.696;2023-04-06T06:23:08;17.10;;;8.77;;
7316;SDS011;3699;51.462;6.696;2023-04-06T06:25:35;14.67;;;8.37;;
7316;SDS011;3699;51.462;6.696;2023-04-06T06:28:01;16.60;;;8.97;;
7316;SDS011;3699;51.462;6.696;2023-04-06T06:30:28;12.57;;;9.03;;
7316;SDS011;3699;51.462;6.696;2023-04-06T06:32:56;14.73;;;9.20;;
7316;SDS011;3699;51.462;6.696;2023-04-06T06:35:23;13.73;;;8.37;;
7316;SDS011;3699;51.462;6.696;2023-04-06T06:37:50;13.20;;;8.47;;
7316;SDS011;3699;51.462;6.696;2023-04-06T06:40:16;11.70;;;8.33;;
7316;SDS011;3699;51.462;6.696;2023-04-06T06:42:45;13.30;;;9.10;;
7316;SDS011;3699;51.462;6.696;2023-04-06T06:45:11;12.47;;;8.27;;
7316;SDS011;3699;51.462;6.696;2023-04-06T06:47:38;12.03;;;8.07;;
7316;SDS011;3699;51.462;6.696;2023-04-06T06:50:07;12.17;;;8.40;;
7316;SDS011;3699;51.462;6.696;2023-04-06T06:52:34;13.17;;;8.13;;
7316;SDS011;3699;51.462;6.696;2023-04-06T06:55:01;11.57;;;8.30;;
7316;SDS011;3699;51.462;6.696;2023-04-06T06:57:28;12.90;;;8.43;;
7316;SDS011;3699;51.462;6.696;2023-04-06T06:59:55;23.57;;;9.47;;
7316;SDS011;3699;51.462;6.696;2023-04-06T07:02:21;12.40;;;8.83;;
7316;SDS011;3699;51.462;6.696;2023-04-06T07:04:48;15.47;;;8.70;;
7316;SDS011;3699;51.462;6.696;2023-04-06T07:07:16;13.60;;;9.50;;
7316;SDS011;3699;51.462;6.696;2023-04-06T07:09:43;14.93;;;8.70;;
7316;SDS011;3699;51.462;6.696;2023-04-06T07:12:10;13.33;;;9.20;;
7316;SDS011;3699;51.462;6.696;2023-04-06T07:14:36;18.57;;;9.20;;
7316;SDS011;3699;51.462;6.696;2023-04-06T07:17:03;13.97;;;9.63;;
7316;SDS011;3699;51.462;6.696;2023-04-06T07:19:30;14.17;;;8.70;;
7316;SDS011;3699;51.462;6.696;2023-04-06T07:21:56;15.23;;;8.80;;
7316;SDS011;3699;51.462;6.696;2023-04-06T07:24:25;14.80;;;8.80;;
7316;SDS011;3699;51.462;6.696;2023-04-06T07:26:52;11.13;;;8.50;;
7316;SDS011;3699;51.462;6.696;2023-04-06T07:29:19;14.60;;;9.47;;
7316;SDS011;3699;51.462;6.696;2023-04-06T07:31:45;14.93;;;9.27;;
7316;SDS011;3699;51.462;6.696;2023-04-06T07:34:14;15.00;;;9.10;;
7316;SDS011;3699;51.462;6.696;2023-04-06T07:36:40;14.93;;;9.17;;
7316;SDS011;3699;51.462;6.696;2023-04-06T07:39:07;16.43;;;9.17;;
7316;SDS011;3699;51.462;6.696;2023-04-06T07:41:35;16.13;;;9.63;;
7316;SDS011;3699;51.462;6.696;2023-04-06T07:44:02;11.33;;;8.80;;
7316;SDS011;3699;51.462;6.696;2023-04-06T07:46:30;13.63;;;8.27;;
7316;SDS011;3699;51.462;6.696;2023-04-06T07:48:57;14.03;;;8.90;;
7316;SDS011;3699;51.462;6.696;2023-04-06T07:51:27;11.87;;;8.43;;
7316;SDS011;3699;51.462;6.696;2023-04-06T07:53:53;15.27;;;9.20;;
7316;SDS011;3699;51.462;6.696;2023-04-06T07:56:20;13.77;;;9.87;;
7316;SDS011;3699;51.462;6.696;2023-04-06T07:58:48;12.43;;;9.43;;
7316;SDS011;3699;51.462;6.696;2023-04-06T08:01:15;13.20;;;8.50;;
7316;SDS011;3699;51.462;6.696;2023-04-06T08:03:42;12.90;;;9.13;;
7316;SDS011;3699;51.462;6.696;2023-04-06T08:06:09;14.10;;;9.60;;
7316;SDS011;3699;51.462;6.696;2023-04-06T08:08:36;13.70;;;9.47;;
7316;SDS011;3699;51.462;6.696;2023-04-06T08:11:03;13.63;;;8.70;;
7316;SDS011;3699;51.462;6.696;2023-04-06T08:13:29;16.27;;;9.57;;
7316;SDS011;3699;51.462;6.696;2023-04-06T08:15:58;14.67;;;9.97;;
7316;SDS011;3699;51.462;6.696;2023-04-06T08:18:25;15.43;;;9.40;;
7316;SDS011;3699;51.462;6.696;2023-04-06T08:20:52;15.33;;;9.43;;
7316;SDS011;3699;51.462;6.696;2023-04-06T08:23:20;14.30;;;9.70;;
7316;SDS011;3699;51.462;6.696;2023-04-06T08:25:47;12.13;;;9.07;;
7316;SDS011;3699;51.462;6.696;2023-04-06T08:28:13;15.60;;;9.60;;
7316;SDS011;3699;51.462;6.696;2023-04-06T08:30:41;13.27;;;9.60;;
7316;SDS011;3699;51.462;6.696;2023-04-06T08:33:09;15.57;;;10.13;;
7316;SDS011;3699;51.462;6.696;2023-04-06T08:35:37;14.57;;;9.97;;
7316;SDS011;3699;51.462;6.696;2023-04-06T08:38:04;16.27;;;10.60;;
7316;SDS011;3699;51.462;6.696;2023-04-06T08:40:35;17.10;;;9.30;;
7316;SDS011;3699;51.462;6.696;2023-04-06T08:43:02;14.43;;;9.80;;
7316;SDS011;3699;51.462;6.696;2023-04-06T08:45:33;15.87;;;9.87;;
7316;SDS011;3699;51.462;6.696;2023-04-06T08:48:00;14.50;;;9.67;;
7316;SDS011;3699;51.462;6.696;2023-04-06T08:50:30;14.90;;;10.10;;
7316;SDS011;3699;51.462;6.696;2023-04-06T08:52:58;16.40;;;9.87;;
7316;SDS011;3699;51.462;6.696;2023-04-06T08:55:25;17.30;;;10.23;;
7316;SDS011;3699;51.462;6.696;2023-04-06T08:57:52;17.63;;;10.73;;
7316;SDS011;3699;51.462;6.696;2023-04-06T09:00:21;18.67;;;10.60;;
7316;SDS011;3699;51.462;6.696;2023-04-06T09:02:49;14.40;;;9.47;;
7316;SDS011;3699;51.462;6.696;2023-04-06T09:05:19;15.83;;;9.93;;
7316;SDS011;3699;51.462;6.696;2023-04-06T09:07:47;16.10;;;10.67;;
7316;SDS011;3699;51.462;6.696;2023-04-06T09:10:14;17.03;;;11.13;;
7316;SDS011;3699;51.462;6.696;2023-04-06T09:12:43;16.30;;;11.20;;
7316;SDS011;3699;51.462;6.696;2023-04-06T09:15:17;21.03;;;11.53;;
7316;SDS011;3699;51.462;6.696;2023-04-06T09:17:45;17.90;;;11.47;;
7316;SDS011;3699;51.462;6.696;2023-04-06T09:20:12;22.20;;;12.57;;
7316;SDS011;3699;51.462;6.696;2023-04-06T09:22:39;22.17;;;12.87;;
7316;SDS011;3699;51.462;6.696;2023-04-06T09:25:09;22.37;;;12.93;;
7316;SDS011;3699;51.462;6.696;2023-04-06T09:27:44;18.37;;;11.83;;
7316;SDS011;3699;51.462;6.696;2023-04-06T09:30:11;22.97;;;13.20;;
7316;SDS011;3699;51.462;6.696;2023-04-06T09:32:48;22.67;;;13.30;;
7316;SDS011;3699;51.462;6.696;2023-04-06T09:35:15;24.77;;;13.13;;
7316;SDS011;3699;51.462;6.696;2023-04-06T09:37:45;19.77;;;13.27;;
7316;SDS011;3699;51.462;6.696;2023-04-06T09:40:14;29.43;;;13.80;;
7316;SDS011;3699;51.462;6.696;2023-04-06T09:42:42;25.27;;;12.90;;
7316;SDS011;3699;51.462;6.696;2023-04-06T09:45:11;21.70;;;13.00;;
7316;SDS011;3699;51.462;6.696;2023-04-06T09:47:39;22.87;;;13.87;;
7316;SDS011;3699;51.462;6.696;2023-04-06T09:50:09;25.33;;;13.50;;
7316;SDS011;3699;51.462;6.696;2023-04-06T09:52:37;20.67;;;12.70;;
7316;SDS011;3699;51.462;6.696;2023-04-06T09:55:07;21.10;;;13.03;;
7316;SDS011;3699;51.462;6.696;2023-04-06T09:57:37;22.83;;;13.57;;
7316;SDS011;3699;51.462;6.696;2023-04-06T10:00:11;23.10;;;13.07;;
7316;SDS011;3699;51.462;6.696;2023-04-06T10:02:45;23.30;;;12.80;;
7316;SDS011;3699;51.462;6.696;2023-04-06T10:05:16;23.77;;;12.67;;
7316;SDS011;3699;51.462;6.696;2023-04-06T10:07:48;16.53;;;11.50;;
7316;SDS011;3699;51.462;6.696;2023-04-06T10:10:19;21.47;;;11.37;;
7316;SDS011;3699;51.462;6.696;2023-04-06T10:12:48;22.77;;;12.17;;
7316;SDS011;3699;51.462;6.696;2023-04-06T10:15:15;23.37;;;13.23;;
7316;SDS011;3699;51.462;6.696;2023-04-06T10:17:42;20.40;;;12.13;;
7316;SDS011;3699;51.462;6.696;2023-04-06T10:20:10;20.47;;;12.00;;
7316;SDS011;3699;51.462;6.696;2023-04-06T10:22:41;17.90;;;10.97;;
7316;SDS011;3699;51.462;6.696;2023-04-06T10:25:15;23.23;;;12.70;;
7316;SDS011;3699;51.462;6.696;2023-04-06T10:27:42;17.13;;;11.80;;
7316;SDS011;3699;51.462;6.696;2023-04-06T10:30:10;17.57;;;11.90;;
7316;SDS011;3699;51.462;6.696;2023-04-06T10:32:41;21.37;;;13.00;;
7316;SDS011;3699;51.462;6.696;2023-04-06T10:35:08;22.90;;;12.33;;
7316;SDS011;3699;51.462;6.696;2023-04-06T10:37:46;17.90;;;12.10;;
7316;SDS011;3699;51.462;6.696;2023-04-06T10:40:23;22.10;;;12.97;;
7316;SDS011;3699;51.462;6.696;2023-04-06T10:42:51;21.90;;;13.13;;
7316;SDS011;3699;51.462;6.696;2023-04-06T10:45:22;21.37;;;12.40;;
7316;SDS011;3699;51.462;6.696;2023-04-06T10:47:51;20.07;;;12.63;;
7316;SDS011;3699;51.462;6.696;2023-04-06T10:50:19;18.20;;;12.27;;
7316;SDS011;3699;51.462;6.696;2023-04-06T10:52:46;21.67;;;13.30;;
7316;SDS011;3699;51.462;6.696;2023-04-06T10:55:24;22.10;;;13.00;;
7316;SDS011;3699;51.462;6.696;2023-04-06T10:57:52;20.70;;;12.53;;
7316;SDS011;3699;51.462;6.696;2023-04-06T11:00:19;18.03;;;11.17;;
7316;SDS011;3699;51.462;6.696;2023-04-06T11:02:48;17.07;;;11.57;;
7316;SDS011;3699;51.462;6.696;2023-04-06T11:05:15;21.17;;;11.40;;
7316;SDS011;3699;51.462;6.696;2023-04-06T11:07:42;30.17;;;14.00;;
7316;SDS011;3699;51.462;6.696;2023-04-06T11:10:10;23.40;;;12.80;;
7316;SDS011;3699;51.462;6.696;2023-04-06T11:12:37;17.40;;;11.40;;
7316;SDS011;3699;51.462;6.696;2023-04-06T11:15:04;22.00;;;12.07;;
7316;SDS011;3699;51.462;6.696;2023-04-06T11:17:33;26.20;;;12.90;;
7316;SDS011;3699;51.462;6.696;2023-04-06T11:20:02;20.80;;;11.97;;
7316;SDS011;3699;51.462;6.696;2023-04-06T11:22:30;22.43;;;12.90;;
7316;SDS011;3699;51.462;6.696;2023-04-06T11:25:04;22.23;;;13.37;;
7316;SDS011;3699;51.462;6.696;2023-04-06T11:27:31;22.87;;;12.53;;
7316;SDS011;3699;51.462;6.696;2023-04-06T11:29:59;20.03;;;12.00;;
7316;SDS011;3699;51.462;6.696;2023-04-06T11:32:26;25.43;;;13.97;;
7316;SDS011;3699;51.462;6.696;2023-04-06T11:34:54;20.90;;;12.70;;
7316;SDS011;3699;51.462;6.696;2023-04-06T11:37:25;22.00;;;14.20;;
7316;SDS011;3699;51.462;6.696;2023-04-06T11:39:54;20.30;;;12.80;;
7316;SDS011;3699;51.462;6.696;2023-04-06T11:42:24;24.43;;;14.03;;
7316;SDS011;3699;51.462;6.696;2023-04-06T11:44:53;21.70;;;12.70;;
7316;SDS011;3699;51.462;6.696;2023-04-06T11:47:26;21.60;;;12.90;;
7316;SDS011;3699;51.462;6.696;2023-04-06T11:49:55;22.03;;;15.77;;
7316;SDS011;3699;51.462;6.696;2023-04-06T11:52:31;44.70;;;33.23;;
7316;SDS011;3699;51.462;6.696;2023-04-06T11:54:57;31.90;;;23.23;;
7316;SDS011;3699;51.462;6.696;2023-04-06T11:57:24;33.90;;;26.20;;
7316;SDS011;3699;51.462;6.696;2023-04-06T11:59:51;28.30;;;19.03;;
7316;SDS011;3699;51.462;6.696;2023-04-06T12:02:18;26.53;;;21.07;;
7316;SDS011;3699;51.462;6.696;2023-04-06T12:04:46;23.70;;;16.80;;
7316;SDS011;3699;51.462;6.696;2023-04-06T12:07:14;28.17;;;19.07;;
7316;SDS011;3699;51.462;6.696;2023-04-06T12:09:42;61.00;;;54.73;;
7316;SDS011;3699;51.462;6.696;2023-04-06T12:12:09;26.63;;;20.30;;
7316;SDS011;3699;51.462;6.696;2023-04-06T12:14:36;26.37;;;14.67;;
7316;SDS011;3699;51.462;6.696;2023-04-06T12:17:03;38.37;;;30.00;;
7316;SDS011;3699;51.462;6.696;2023-04-06T12:19:30;71.00;;;58.43;;
7316;SDS011;3699;51.462;6.696;2023-04-06T12:22:00;117.77;;;85.50;;
7316;SDS011;3699;51.462;6.696;2023-04-06T12:24:28;36.93;;;31.63;;
7316;SDS011;3699;51.462;6.696;2023-04-06T12:26:55;18.40;;;12.53;;
7316;SDS011;3699;51.462;6.696;2023-04-06T12:29:23;26.73;;;20.90;;
7316;SDS011;3699;51.462;6.696;2023-04-06T12:31:50;28.40;;;20.67;;
7316;SDS011;3699;51.462;6.696;2023-04-06T12:34:18;44.07;;;33.30;;
7316;SDS011;3699;51.462;6.696;2023-04-06T12:36:45;28.03;;;21.63;;
7316;SDS011;3699;51.462;6.696;2023-04-06T12:39:12;31.90;;;22.60;;
7316;SDS011;3699;51.462;6.696;2023-04-06T12:41:40;31.40;;;24.23;;
7316;SDS011;3699;51.462;6.696;2023-04-06T12:44:07;49.77;;;38.40;;
7316;SDS011;3699;51.462;6.696;2023-04-06T12:46:34;38.20;;;29.10;;
7316;SDS011;3699;51.462;6.696;2023-04-06T12:49:01;56.47;;;48.77;;
7316;SDS011;3699;51.462;6.696;2023-04-06T12:51:28;49.87;;;40.40;;
7316;SDS011;3699;51.462;6.696;2023-04-06T12:53:56;23.50;;;18.17;;
7316;SDS011;3699;51.462;6.696;2023-04-06T12:56:23;18.60;;;15.50;;
7316;SDS011;3699;51.462;6.696;2023-04-06T12:58:51;21.33;;;12.20;;
7316;SDS011;3699;51.462;6.696;2023-04-06T13:01:18;12.13;;;9.53;;
7316;SDS011;3699;51.462;6.696;2023-04-06T13:03:46;19.00;;;15.50;;
7316;SDS011;3699;51.462;6.696;2023-04-06T13:06:12;13.63;;;10.67;;
7316;SDS011;3699;51.462;6.696;2023-04-06T13:08:40;13.60;;;9.00;;
7316;SDS011;3699;51.462;6.696;2023-04-06T13:11:07;17.87;;;12.33;;
7316;SDS011;3699;51.462;6.696;2023-04-06T13:13:34;13.17;;;10.03;;
7316;SDS011;3699;51.462;6.696;2023-04-06T13:16:04;24.50;;;17.70;;
7316;SDS011;3699;51.462;6.696;2023-04-06T13:18:32;20.33;;;12.97;;
7316;SDS011;3699;51.462;6.696;2023-04-06T13:20:59;13.80;;;11.07;;
7316;SDS011;3699;51.462;6.696;2023-04-06T13:23:26;12.13;;;8.10;;
7316;SDS011;3699;51.462;6.696;2023-04-06T13:25:56;24.93;;;19.47;;
7316;SDS011;3699;51.462;6.696;2023-04-06T13:28:24;17.37;;;11.50;;
7316;SDS011;3699;51.462;6.696;2023-04-06T13:30:52;23.77;;;19.37;;
7316;SDS011;3699;51.462;6.696;2023-04-06T13:33:20;13.47;;;9.67;;
7316;SDS011;3699;51.462;6.696;2023-04-06T13:35:47;16.60;;;13.63;;
7316;SDS011;3699;51.462;6.696;2023-04-06T13:38:14;15.40;;;11.70;;
7316;SDS011;3699;51.462;6.696;2023-04-06T13:40:41;13.07;;;10.93;;
7316;SDS011;3699;51.462;6.696;2023-04-06T13:43:09;15.60;;;12.93;;
7316;SDS011;3699;51.462;6.696;2023-04-06T13:45:36;13.20;;;11.00;;
7316;SDS011;3699;51.462;6.696;2023-04-06T13:48:03;10.83;;;8.10;;
7316;SDS011;3699;51.462;6.696;2023-04-06T13:50:31;25.83;;;22.23;;
7316;SDS011;3699;51.462;6.696;2023-04-06T13:52:58;20.87;;;17.00;;
7316;SDS011;3699;51.462;6.696;2023-04-06T13:55:25;25.27;;;20.40;;
7316;SDS011;3699;51.462;6.696;2023-04-06T13:57:52;19.33;;;14.70;;
7316;SDS011;3699;51.462;6.696;2023-04-06T14:00:20;72.00;;;51.47;;
7316;SDS011;3699;51.462;6.696;2023-04-06T14:02:47;247.13;;;173.07;;
7316;SDS011;3699;51.462;6.696;2023-04-06T14:05:13;188.97;;;131.93;;
7316;SDS011;3699;51.462;6.696;2023-04-06T14:07:42;151.13;;;88.80;;
7316;SDS011;3699;51.462;6.696;2023-04-06T14:10:09;375.07;;;225.43;;
7316;SDS011;3699;51.462;6.696;2023-04-06T14:12:39;419.53;;;288.13;;
7316;SDS011;3699;51.462;6.696;2023-04-06T14:15:06;175.43;;;130.40;;
7316;SDS011;3699;51.462;6.696;2023-04-06T14:17:35;180.63;;;155.87;;
7316;SDS011;3699;51.462;6.696;2023-04-06T14:20:01;79.10;;;70.50;;
7316;SDS011;3699;51.462;6.696;2023-04-06T14:22:29;82.07;;;69.30;;
7316;SDS011;3699;51.462;6.696;2023-04-06T14:24:57;59.83;;;44.60;;
7316;SDS011;3699;51.462;6.696;2023-04-06T14:27:24;25.93;;;23.17;;
7316;SDS011;3699;51.462;6.696;2023-04-06T14:29:51;38.07;;;34.27;;
7316;SDS011;3699;51.462;6.696;2023-04-06T14:35:40;15.93;;;14.23;;
7316;SDS011;3699;51.462;6.696;2023-04-06T14:38:07;15.00;;;12.67;;
7316;SDS011;3699;51.462;6.696;2023-04-06T14:43:07;144.37;;;108.20;;
7316;SDS011;3699;51.462;6.696;2023-04-06T14:45:34;95.73;;;65.53;;
7316;SDS011;3699;51.462;6.696;2023-04-06T14:48:01;93.20;;;71.70;;
7316;SDS011;3699;51.462;6.696;2023-04-06T14:50:30;114.53;;;75.80;;
7316;SDS011;3699;51.462;6.696;2023-04-06T14:52:57;96.67;;;62.23;;
7316;SDS011;3699;51.462;6.696;2023-04-06T14:55:24;74.93;;;51.47;;
7316;SDS011;3699;51.462;6.696;2023-04-06T14:57:52;50.47;;;39.03;;